sensor_id;sensor_type;location;lat;lon;timestamp;pressure;altitude;pressure_sealevel;temperature;humidity
8543;BME280;4309;42.658;23.380;2023-02-28T00:00:10;95197.09;;;6.99;99.85
8543;BME280;4309;42.658;23.380;2023-02-28T00:00:43;95192.50;;;7.01;99.43
8543;BME280;4309;42.658;23.380;2023-02-28T00:01:15;95196.13;;;7.00;99.92
8543;BME280;4309;42.658;23.380;2023-02-28T00:01:48;95189.91;;;7.01;98.92
8543;BME280;4309;42.658;23.380;2023-02-28T00:02:21;95190.09;;;7.00;99.01
8543;BME280;4309;42.658;23.380;2023-02-28T00:02:53;95195.47;;;6.98;98.45
8543;BME280;4309;42.658;23.380;2023-02-28T00:03:25;95200.06;;;6.96;99.07
8543;BME280;4309;42.658;23.380;2023-02-28T00:03:58;95197.63;;;6.95;99.93
8543;BME280;4309;42.658;23.380;2023-02-28T00:04:30;95204.88;;;6.99;98.63
8543;BME280;4309;42.658;23.380;2023-02-28T00:05:00;95197.91;;;7.00;99.21
8543;BME280;4309;42.658;23.380;2023-02-28T00:05:35;95203.91;;;7.00;99.18
8543;BME280;4309;42.658;23.380;2023-02-28T00:06:07;95197.63;;;6.95;99.02
8543;BME280;4309;42.658;23.380;2023-02-28T00:06:41;95197.63;;;6.95;98.38
8543;BME280;4309;42.658;23.380;2023-02-28T00:07:14;95195.78;;;6.89;98.90
8543;BME280;4309;42.658;23.380;2023-02-28T00:07:46;95192.81;;;6.92;99.33
8543;BME280;4309;42.658;23.380;2023-02-28T00:08:18;95200.97;;;6.89;99.36
8543;BME280;4309;42.658;23.380;2023-02-28T00:08:51;95199.59;;;6.93;99.65
8543;BME280;4309;42.658;23.380;2023-02-28T00:09:24;95203.22;;;6.92;99.42
8543;BME280;4309;42.658;23.380;2023-02-28T00:09:56;95196.22;;;6.92;99.93
8543;BME280;4309;42.658;23.380;2023-02-28T00:10:31;95203.03;;;6.93;99.15
8543;BME280;4309;42.658;23.380;2023-02-28T00:11:08;95200.63;;;6.92;99.86
8543;BME280;4309;42.658;23.380;2023-02-28T00:11:41;95200.16;;;6.88;100.00
8543;BME280;4309;42.658;23.380;2023-02-28T00:12:14;95194.59;;;6.91;100.00
8543;BME280;4309;42.658;23.380;2023-02-28T00:12:45;95201.63;;;6.91;99.81
8543;BME280;4309;42.658;23.380;2023-02-28T00:13:17;95196.59;;;6.89;99.93
8543;BME280;4309;42.658;23.380;2023-02-28T00:13:53;95202.06;;;6.94;100.00
8543;BME280;4309;42.658;23.380;2023-02-28T00:14:25;95195.22;;;6.93;100.00
8543;BME280;4309;42.658;23.380;2023-02-28T00:14:56;95197.00;;;6.93;100.00
8543;BME280;4309;42.658;23.380;2023-02-28T00:15:30;95196.22;;;6.92;100.00
8543;BME280;4309;42.658;23.380;2023-02-28T00:16:04;95201.63;;;6.91;100.00
8543;BME280;4309;42.658;23.380;2023-02-28T00:16:36;95199.00;;;6.91;100.00
8543;BME280;4309;42.658;23.380;2023-02-28T00:17:09;95205.19;;;6.90;99.91
8543;BME280;4309;42.658;23.380;2023-02-28T00:17:41;95199.19;;;6.89;99.74
8543;BME280;4309;42.658;23.380;2023-02-28T00:18:13;95213.16;;;6.88;99.64
8543;BME280;4309;42.658;23.380;2023-02-28T00:18:46;95208.16;;;6.87;100.00
8543;BME280;4309;42.658;23.380;2023-02-28T00:19:18;95212.31;;;6.81;100.00
8543;BME280;4309;42.658;23.380;2023-02-28T00:19:51;95210.53;;;6.82;100.00
8543;BME280;4309;42.658;23.380;2023-02-28T00:20:23;95203.69;;;6.81;100.00
8543;BME280;4309;42.658;23.380;2023-02-28T00:20:55;95205.47;;;6.80;100.00
8543;BME280;4309;42.658;23.380;2023-02-28T00:21:27;95202.66;;;6.75;100.00
8543;BME280;4309;42.658;23.380;2023-02-28T00:21:59;95207.03;;;6.75;100.00
8543;BME280;4309;42.658;23.380;2023-02-28T00:22:31;95207.00;;;6.89;100.00
8543;BME280;4309;42.658;23.380;2023-02-28T00:23:03;95210.19;;;6.91;100.00
8543;BME280;4309;42.658;23.380;2023-02-28T00:23:38;95205.44;;;6.95;100.00
8543;BME280;4309;42.658;23.380;2023-02-28T00:24:10;95209.28;;;6.99;100.00
8543;BME280;4309;42.658;23.380;2023-02-28T00:24:42;95208.94;;;7.02;100.00
8543;BME280;4309;42.658;23.380;2023-02-28T00:25:19;95209.91;;;7.01;100.00
8543;BME280;4309;42.658;23.380;2023-02-28T00:25:52;95211.72;;;7.00;100.00
8543;BME280;4309;42.658;23.380;2023-02-28T00:26:25;95217.69;;;7.01;100.00
8543;BME280;4309;42.658;23.380;2023-02-28T00:26:59;95215.28;;;6.99;100.00
8543;BME280;4309;42.658;23.380;2023-02-28T00:27:31;95204.81;;;6.93;100.00
8543;BME280;4309;42.658;23.380;2023-02-28T00:28:03;95222.03;;;6.94;100.00
8543;BME280;4309;42.658;23.380;2023-02-28T00:28:36;95218.88;;;6.98;100.00
8543;BME280;4309;42.658;23.380;2023-02-28T00:29:08;95224.75;;;6.86;100.00
8543;BME280;4309;42.658;23.380;2023-02-28T00:29:39;95210.44;;;6.96;100.00
8543;BME280;4309;42.658;23.380;2023-02-28T00:30:14;95213.75;;;7.05;100.00
8543;BME280;4309;42.658;23.380;2023-02-28T00:30:46;95208.38;;;7.06;100.00
8543;BME280;4309;42.658;23.380;2023-02-28T00:31:18;95206.03;;;7.11;100.00
8543;BME280;4309;42.658;23.380;2023-02-28T00:31:50;95205.28;;;7.17;100.00
8543;BME280;4309;42.658;23.380;2023-02-28T00:32:22;95206.09;;;7.18;100.00
8543;BME280;4309;42.658;23.380;2023-02-28T00:32:54;95212.25;;;7.17;100.00
8543;BME280;4309;42.658;23.380;2023-02-28T00:33:26;95210.28;;;7.19;99.95
8543;BME280;4309;42.658;23.380;2023-02-28T00:33:59;95211.69;;;7.21;100.00
8543;BME280;4309;42.658;23.380;2023-02-28T00:34:31;95216.03;;;7.14;99.79
8543;BME280;4309;42.658;23.380;2023-02-28T00:35:09;95215.41;;;7.12;100.00
8543;BME280;4309;42.658;23.380;2023-02-28T00:35:43;95211.53;;;7.02;100.00
8543;BME280;4309;42.658;23.380;2023-02-28T00:36:17;95217.09;;;6.99;100.00
8543;BME280;4309;42.658;23.380;2023-02-28T00:36:49;95221.56;;;7.05;100.00
8543;BME280;4309;42.658;23.380;2023-02-28T00:37:22;95206.75;;;7.05;100.00
8543;BME280;4309;42.658;23.380;2023-02-28T00:37:54;95212.13;;;7.04;100.00
8543;BME280;4309;42.658;23.380;2023-02-28T00:38:27;95218.75;;;7.06;100.00
8543;BME280;4309;42.658;23.380;2023-02-28T00:39:02;95216.41;;;7.11;100.00
8543;BME280;4309;42.658;23.380;2023-02-28T00:39:35;95221.25;;;7.14;100.00
8543;BME280;4309;42.658;23.380;2023-02-28T00:40:07;95225.50;;;7.22;100.00
8543;BME280;4309;42.658;23.380;2023-02-28T00:40:41;95220.31;;;7.22;100.00
8543;BME280;4309;42.658;23.380;2023-02-28T00:41:13;95216.84;;;7.15;100.00
8543;BME280;4309;42.658;23.380;2023-02-28T00:41:47;95215.34;;;7.06;100.00
8543;BME280;4309;42.658;23.380;2023-02-28T00:42:22;95218.84;;;7.13;100.00
8543;BME280;4309;42.658;23.380;2023-02-28T00:42:54;95213.88;;;7.18;100.00
8543;BME280;4309;42.658;23.380;2023-02-28T00:43:26;95211.88;;;7.20;100.00
8543;BME280;4309;42.658;23.380;2023-02-28T00:43:59;95205.09;;;7.19;100.00
8543;BME280;4309;42.658;23.380;2023-02-28T00:44:32;95194.13;;;7.23;100.00
8543;BME280;4309;42.658;23.380;2023-02-28T00:45:05;95191.34;;;7.25;100.00
8543;BME280;4309;42.658;23.380;2023-02-28T00:45:45;95195.31;;;7.21;100.00
8543;BME280;4309;42.658;23.380;2023-02-28T00:46:16;95190.81;;;7.15;100.00
8543;BME280;4309;42.658;23.380;2023-02-28T00:46:48;95195.63;;;7.11;100.00
8543;BME280;4309;42.658;23.380;2023-02-28T00:47:20;95199.56;;;7.07;100.00
8543;BME280;4309;42.658;23.380;2023-02-28T00:47:53;95187.75;;;7.05;100.00
8543;BME280;4309;42.658;23.380;2023-02-28T00:48:25;95195.28;;;7.00;100.00
8543;BME280;4309;42.658;23.380;2023-02-28T00:48:57;95193.13;;;7.03;100.00
8543;BME280;4309;42.658;23.380;2023-02-28T00:49:30;95197.44;;;6.96;100.00
8543;BME280;4309;42.658;23.380;2023-02-28T00:50:02;95194.47;;;6.99;100.00
8543;BME280;4309;42.658;23.380;2023-02-28T00:50:35;95193.88;;;6.97;100.00
8543;BME280;4309;42.658;23.380;2023-02-28T00:51:06;95196.84;;;6.94;100.00
8543;BME280;4309;42.658;23.380;2023-02-28T00:51:38;95198.81;;;6.92;100.00
8543;BME280;4309;42.658;23.380;2023-02-28T00:52:09;95194.19;;;6.88;100.00
8543;BME280;4309;42.658;23.380;2023-02-28T00:52:42;95195.59;;;6.90;100.00
8543;BME280;4309;42.658;23.380;2023-02-28T00:53:13;95190.84;;;6.94;100.00
8543;BME280;4309;42.658;23.380;2023-02-28T00:53:45;95191.66;;;6.94;100.00
8543;BME280;4309;42.658;23.380;2023-02-28T00:54:18;95186.81;;;6.91;100.00
8543;BME280;4309;42.658;23.380;2023-02-28T00:54:50;95193.88;;;6.97;100.00
8543;BME280;4309;42.658;23.380;2023-02-28T00:55:22;95190.66;;;6.95;100.00
8543;BME280;4309;42.658;23.380;2023-02-28T00:55:55;95188.91;;;7.02;100.00
8543;BME280;4309;42.658;23.380;2023-02-28T00:56:27;95192.94;;;7.05;100.00
8543;BME280;4309;42.658;23.380;2023-02-28T00:56:59;95191.75;;;7.07;100.00
8543;BME280;4309;42.658;23.380;2023-02-28T00:57:32;95192.44;;;6.95;100.00
8543;BME280;4309;42.658;23.380;2023-02-28T00:58:04;95197.63;;;6.95;100.00
8543;BME280;4309;42.658;23.380;2023-02-28T00:58:36;95195.34;;;6.85;100.00
8543;BME280;4309;42.658;23.380;2023-02-28T00:59:12;95192.16;;;6.83;100.00
8543;BME280;4309;42.658;23.380;2023-02-28T00:59:43;95195.72;;;6.82;100.00
8543;BME280;4309;42.658;23.380;2023-02-28T01:00:14;95203.88;;;6.79;100.00
8543;BME280;4309;42.658;23.380;2023-02-28T01:00:47;95206.66;;;6.78;100.00
8543;BME280;4309;42.658;23.380;2023-02-28T01:01:20;95201.09;;;6.81;100.00
8543;BME280;4309;42.658;23.380;2023-02-28T01:01:52;95205.75;;;6.85;100.00
8543;BME280;4309;42.658;23.380;2023-02-28T01:02:25;95210.53;;;6.82;100.00
8543;BME280;4309;42.658;23.380;2023-02-28T01:02:57;95211.84;;;6.78;100.00
8543;BME280;4309;42.658;23.380;2023-02-28T01:03:29;95204.75;;;6.86;100.00
8543;BME280;4309;42.658;23.380;2023-02-28T01:04:02;95210.56;;;6.88;100.00
8543;BME280;4309;42.658;23.380;2023-02-28T01:04:34;95207.19;;;6.88;100.00
8543;BME280;4309;42.658;23.380;2023-02-28T01:05:08;95211.38;;;6.89;100.00
8543;BME280;4309;42.658;23.380;2023-02-28T01:05:41;95203.84;;;6.94;100.00
8543;BME280;4309;42.658;23.380;2023-02-28T01:06:13;95214.25;;;6.94;100.00
8543;BME280;4309;42.658;23.380;2023-02-28T01:06:45;95204.09;;;6.99;100.00
8543;BME280;4309;42.658;23.380;2023-02-28T01:07:18;95202.84;;;6.95;100.00
8543;BME280;4309;42.658;23.380;2023-02-28T01:07:50;95204.75;;;6.86;100.00
8543;BME280;4309;42.658;23.380;2023-02-28T01:08:22;95208.72;;;6.82;100.00
8543;BME280;4309;42.658;23.380;2023-02-28T01:08:55;95209.06;;;6.79;100.00
8543;BME280;4309;42.658;23.380;2023-02-28T01:09:28;95208.44;;;6.77;100.00
8543;BME280;4309;42.658;23.380;2023-02-28T01:10:00;95211.00;;;6.71;100.00
8543;BME280;4309;42.658;23.380;2023-02-28T01:10:33;95213.78;;;6.69;100.00
8543;BME280;4309;42.658;23.380;2023-02-28T01:11:09;95211.34;;;6.68;100.00
8543;BME280;4309;42.658;23.380;2023-02-28T01:11:42;95214.13;;;6.66;100.00
8543;BME280;4309;42.658;23.380;2023-02-28T01:12:17;95205.28;;;6.61;100.00
8543;BME280;4309;42.658;23.380;2023-02-28T01:12:49;95208.50;;;6.63;100.00
8543;BME280;4309;42.658;23.380;2023-02-28T01:13:22;95204.16;;;6.70;100.00
8543;BME280;4309;42.658;23.380;2023-02-28T01:13:55;95202.28;;;6.78;100.00
8543;BME280;4309;42.658;23.380;2023-02-28T01:14:27;95206.47;;;6.79;100.00
8543;BME280;4309;42.658;23.380;2023-02-28T01:14:58;95210.25;;;6.77;100.00
8543;BME280;4309;42.658;23.380;2023-02-28T01:15:31;95211.38;;;6.89;100.00
8543;BME280;4309;42.658;23.380;2023-02-28T01:16:03;95200.97;;;6.89;100.00
8543;BME280;4309;42.658;23.380;2023-02-28T01:16:35;95202.88;;;6.80;100.00
8543;BME280;4309;42.658;23.380;2023-02-28T01:17:09;95205.13;;;6.83;100.00
8543;BME280;4309;42.658;23.380;2023-02-28T01:17:40;95200.97;;;6.89;100.00
8543;BME280;4309;42.658;23.380;2023-02-28T01:18:12;95205.81;;;6.92;100.00
8543;BME280;4309;42.658;23.380;2023-02-28T01:18:47;95195.22;;;6.93;100.00
8543;BME280;4309;42.658;23.380;2023-02-28T01:19:19;95200.63;;;6.92;100.00
8543;BME280;4309;42.658;23.380;2023-02-28T01:19:53;95190.59;;;6.89;100.00
8543;BME280;4309;42.658;23.380;2023-02-28T01:20:26;95196.16;;;6.86;100.00
8543;BME280;4309;42.658;23.380;2023-02-28T01:21:03;95195.72;;;6.82;100.00
8543;BME280;4309;42.658;23.380;2023-02-28T01:21:38;95195.72;;;6.82;100.00
8543;BME280;4309;42.658;23.380;2023-02-28T01:22:10;95192.66;;;6.79;100.00
8543;BME280;4309;42.658;23.380;2023-02-28T01:22:42;95204.50;;;6.81;100.00
8543;BME280;4309;42.658;23.380;2023-02-28T01:23:15;95194.97;;;6.88;100.00
8543;BME280;4309;42.658;23.380;2023-02-28T01:23:48;95195.34;;;6.85;100.00
8543;BME280;4309;42.658;23.380;2023-02-28T01:24:21;95192.84;;;6.77;100.00
8543;BME280;4309;42.658;23.380;2023-02-28T01:24:54;95201.38;;;6.71;100.00
8543;BME280;4309;42.658;23.380;2023-02-28T01:25:26;95193.97;;;6.68;100.00
8543;BME280;4309;42.658;23.380;2023-02-28T01:26:05;95198.06;;;6.77;100.00
8543;BME280;4309;42.658;23.380;2023-02-28T01:26:37;95195.09;;;6.80;100.00
8543;BME280;4309;42.658;23.380;2023-02-28T01:27:10;95192.66;;;6.79;100.00
8543;BME280;4309;42.658;23.380;2023-02-28T01:27:47;95195.91;;;6.81;100.00
8543;BME280;4309;42.658;23.380;2023-02-28T01:28:19;95191.19;;;6.70;100.00
8543;BME280;4309;42.658;23.380;2023-02-28T01:28:52;95188.69;;;6.62;100.00
8543;BME280;4309;42.658;23.380;2023-02-28T01:29:24;95194.88;;;6.61;100.00
8543;BME280;4309;42.658;23.380;2023-02-28T01:29:57;95198.53;;;6.66;100.00
8543;BME280;4309;42.658;23.380;2023-02-28T01:30:30;95199.44;;;6.59;100.00
8543;BME280;4309;42.658;23.380;2023-02-28T01:31:02;95192.09;;;6.62;100.00
8543;BME280;4309;42.658;23.380;2023-02-28T01:31:34;95191.28;;;6.62;100.00
8543;BME280;4309;42.658;23.380;2023-02-28T01:32:07;95195.50;;;6.63;100.00
8543;BME280;4309;42.658;23.380;2023-02-28T01:32:39;95193.88;;;6.62;100.00
8543;BME280;4309;42.658;23.380;2023-02-28T01:33:11;95193.16;;;6.68;100.00
8543;BME280;4309;42.658;23.380;2023-02-28T01:33:44;95188.59;;;6.70;100.00
8543;BME280;4309;42.658;23.380;2023-02-28T01:34:17;95192.63;;;6.72;100.00
8543;BME280;4309;42.658;23.380;2023-02-28T01:34:51;95191.63;;;6.73;100.00
8543;BME280;4309;42.658;23.380;2023-02-28T01:35:24;95187.34;;;6.66;100.00
8543;BME280;4309;42.658;23.380;2023-02-28T01:35:58;95181.91;;;6.61;100.00
8543;BME280;4309;42.658;23.380;2023-02-28T01:36:30;95188.09;;;6.60;100.00
8543;BME280;4309;42.658;23.380;2023-02-28T01:37:05;95188.44;;;6.57;100.00
8543;BME280;4309;42.658;23.380;2023-02-28T01:37:36;95193.28;;;6.60;100.00
8543;BME280;4309;42.658;23.380;2023-02-28T01:38:08;95196.41;;;6.55;100.00
8543;BME280;4309;42.658;23.380;2023-02-28T01:38:42;95186.75;;;6.49;100.00
8543;BME280;4309;42.658;23.380;2023-02-28T01:39:14;95195.06;;;6.59;100.00
8543;BME280;4309;42.658;23.380;2023-02-28T01:39:46;95197.75;;;6.66;100.00
8543;BME280;4309;42.658;23.380;2023-02-28T01:40:19;95196.81;;;6.73;100.00
8543;BME280;4309;42.658;23.380;2023-02-28T01:40:51;95201.56;;;6.70;100.00
8543;BME280;4309;42.658;23.380;2023-02-28T01:41:24;95201.56;;;6.70;100.00
8543;BME280;4309;42.658;23.380;2023-02-28T01:41:57;95197.00;;;6.72;100.00
8543;BME280;4309;42.658;23.380;2023-02-28T01:42:29;95199.59;;;6.72;100.00
8543;BME280;4309;42.658;23.380;2023-02-28T01:43:02;95199.78;;;6.70;100.00
8543;BME280;4309;42.658;23.380;2023-02-28T01:44:01;95197.00;;;6.72;100.00
8543;BME280;4309;42.658;23.380;2023-02-28T01:45:48;95202.72;;;6.82;100.00
8543;BME280;4309;42.658;23.380;2023-02-28T01:46:21;95203.94;;;6.86;100.00
8543;BME280;4309;42.658;23.380;2023-02-28T01:46:52;95205.13;;;6.83;100.00
8543;BME280;4309;42.658;23.380;2023-02-28T01:47:28;95199.06;;;6.76;99.84
8543;BME280;4309;42.658;23.380;2023-02-28T01:48:03;95201.47;;;6.78;99.77
8543;BME280;4309;42.658;23.380;2023-02-28T01:48:40;95198.19;;;6.69;100.00
8543;BME280;4309;42.658;23.380;2023-02-28T01:49:16;95195.22;;;6.72;99.91
8543;BME280;4309;42.658;23.380;2023-02-28T01:49:50;95207.78;;;6.69;100.00
8543;BME280;4309;42.658;23.380;2023-02-28T01:50:26;95195.22;;;6.72;100.00
8543;BME280;4309;42.658;23.380;2023-02-28T01:51:03;95191.50;;;6.81;100.00
8543;BME280;4309;42.658;23.380;2023-02-28T01:51:40;95194.66;;;6.77;100.00
8543;BME280;4309;42.658;23.380;2023-02-28T01:52:18;95203.03;;;6.72;100.00
8543;BME280;4309;42.658;23.380;2023-02-28T01:52:53;95203.03;;;6.72;100.00
8543;BME280;4309;42.658;23.380;2023-02-28T01:53:29;95196.13;;;6.65;100.00
8543;BME280;4309;42.658;23.380;2023-02-28T01:54:05;95198.28;;;6.61;100.00
8543;BME280;4309;42.658;23.380;2023-02-28T01:54:48;95205.91;;;6.63;100.00
8543;BME280;4309;42.658;23.380;2023-02-28T01:55:24;95204.66;;;6.59;100.00
8543;BME280;4309;42.658;23.380;2023-02-28T01:55:59;95197.22;;;6.56;100.00
8543;BME280;4309;42.658;23.380;2023-02-28T01:56:35;95205.00;;;6.56;100.00
8543;BME280;4309;42.658;23.380;2023-02-28T01:57:10;95205.13;;;6.48;100.00
8543;BME280;4309;42.658;23.380;2023-02-28T01:57:47;95201.59;;;6.55;100.00
8543;BME280;4309;42.658;23.380;2023-02-28T01:58:23;95202.03;;;6.59;100.00
8543;BME280;4309;42.658;23.380;2023-02-28T01:58:55;95202.69;;;6.46;100.00
8543;BME280;4309;42.658;23.380;2023-02-28T01:59:32;95200.56;;;6.50;100.00
8543;BME280;4309;42.658;23.380;2023-02-28T02:00:09;95198.88;;;6.27;100.00
8543;BME280;4309;42.658;23.380;2023-02-28T02:00:41;95193.03;;;6.40;100.00
8543;BME280;4309;42.658;23.380;2023-02-28T02:01:14;95196.34;;;6.49;100.00
8543;BME280;4309;42.658;23.380;2023-02-28T02:01:53;95191.88;;;6.43;100.00
8543;BME280;4309;42.658;23.380;2023-02-28T02:02:27;95196.81;;;6.38;100.00
8543;BME280;4309;42.658;23.380;2023-02-28T02:03:05;95188.56;;;6.34;100.00
8543;BME280;4309;42.658;23.380;2023-02-28T02:03:41;95191.72;;;6.29;100.00
8543;BME280;4309;42.658;23.380;2023-02-28T02:04:13;95197.97;;;6.35;100.00
8543;BME280;4309;42.658;23.380;2023-02-28T02:04:50;95204.97;;;6.35;100.00
8543;BME280;4309;42.658;23.380;2023-02-28T02:05:27;95196.47;;;6.26;100.00
8543;BME280;4309;42.658;23.380;2023-02-28T02:05:59;95197.28;;;6.26;100.00
8543;BME280;4309;42.658;23.380;2023-02-28T02:06:37;95201.94;;;6.31;100.00
8543;BME280;4309;42.658;23.380;2023-02-28T02:07:11;95197.28;;;6.26;100.00
8543;BME280;4309;42.658;23.380;2023-02-28T02:07:45;95201.09;;;6.30;100.00
8543;BME280;4309;42.658;23.380;2023-02-28T02:08:21;95201.09;;;6.30;100.00
8543;BME280;4309;42.658;23.380;2023-02-28T02:08:55;95207.03;;;6.39;100.00
8543;BME280;4309;42.658;23.380;2023-02-28T02:09:27;95211.84;;;6.42;100.00
8543;BME280;4309;42.658;23.380;2023-02-28T02:10:04;95203.44;;;6.40;100.00
8543;BME280;4309;42.658;23.380;2023-02-28T02:10:41;95200.84;;;6.40;100.00
8543;BME280;4309;42.658;23.380;2023-02-28T02:11:18;95209.34;;;6.49;100.00
8543;BME280;4309;42.658;23.380;2023-02-28T02:11:50;95198.41;;;6.53;100.00
8543;BME280;4309;42.658;23.380;2023-02-28T02:12:27;95196.78;;;6.52;100.00
8543;BME280;4309;42.658;23.380;2023-02-28T02:13:24;95196.16;;;6.50;100.00
8543;BME280;4309;42.658;23.380;2023-02-28T02:14:22;95193.03;;;6.40;100.00
8543;BME280;4309;42.658;23.380;2023-02-28T02:15:06;95199.44;;;6.23;100.00
8543;BME280;4309;42.658;23.380;2023-02-28T02:15:48;95194.50;;;5.99;100.00
8543;BME280;4309;42.658;23.380;2023-02-28T02:16:35;95197.72;;;5.86;100.00
8543;BME280;4309;42.658;23.380;2023-02-28T02:17:29;95197.72;;;5.86;100.00
8543;BME280;4309;42.658;23.380;2023-02-28T02:18:08;95200.88;;;5.96;100.00
8543;BME280;4309;42.658;23.380;2023-02-28T02:18:48;95208.13;;;6.01;100.00
8543;BME280;4309;42.658;23.380;2023-02-28T02:19:53;95200.06;;;6.10;100.00
8543;BME280;4309;42.658;23.380;2023-02-28T02:20:55;95197.56;;;6.17;100.00
8543;BME280;4309;42.658;23.380;2023-02-28T02:22:12;95186.72;;;6.13;100.00
8543;BME280;4309;42.658;23.380;2023-02-28T02:24:41;95194.22;;;6.08;100.00
8543;BME280;4309;42.658;23.380;2023-02-28T02:25:26;95191.28;;;6.11;100.00
8543;BME280;4309;42.658;23.380;2023-02-28T02:26:14;95194.06;;;6.10;100.00
8543;BME280;4309;42.658;23.380;2023-02-28T02:27:24;95199.44;;;6.08;100.00
8543;BME280;4309;42.658;23.380;2023-02-28T02:29:31;95196.81;;;6.08;100.00
8543;BME280;4309;42.658;23.380;2023-02-28T02:30:37;95191.09;;;6.13;100.00
8543;BME280;4309;42.658;23.380;2023-02-28T02:31:36;95191.44;;;6.24;100.00
8543;BME280;4309;42.658;23.380;2023-02-28T02:34:32;95197.06;;;6.43;100.00
8543;BME280;4309;42.658;23.380;2023-02-28T02:35:50;95194.28;;;6.44;100.00
8543;BME280;4309;42.658;23.380;2023-02-28T02:36:27;95193.66;;;6.42;100.00
8543;BME280;4309;42.658;23.380;2023-02-28T02:37:21;95194.91;;;6.46;100.00
8543;BME280;4309;42.658;23.380;2023-02-28T02:37:59;95193.75;;;6.49;100.00
8543;BME280;4309;42.658;23.380;2023-02-28T02:38:37;95190.97;;;6.50;100.00
8543;BME280;4309;42.658;23.380;2023-02-28T02:39:17;95197.50;;;6.46;100.00
8543;BME280;4309;42.658;23.380;2023-02-28T02:39:54;95192.13;;;6.48;100.00
8543;BME280;4309;42.658;23.380;2023-02-28T02:40:35;95201.38;;;6.50;100.00
8543;BME280;4309;42.658;23.380;2023-02-28T02:41:15;95201.25;;;6.58;100.00
8543;BME280;4309;42.658;23.380;2023-02-28T02:41:52;95200.19;;;6.53;100.00
8543;BME280;4309;42.658;23.380;2023-02-28T02:42:28;95197.78;;;6.51;100.00
8543;BME280;4309;42.658;23.380;2023-02-28T02:43:07;95206.03;;;6.40;100.00
8543;BME280;4309;42.658;23.380;2023-02-28T02:43:47;95210.50;;;6.31;100.00
8543;BME280;4309;42.658;23.380;2023-02-28T02:44:24;95205.75;;;6.20;100.00
8543;BME280;4309;42.658;23.380;2023-02-28T02:45:00;95203.34;;;6.33;100.00
8543;BME280;4309;42.658;23.380;2023-02-28T02:45:39;95203.25;;;6.42;100.00
8543;BME280;4309;42.658;23.380;2023-02-28T02:46:16;95204.50;;;6.46;100.00
8543;BME280;4309;42.658;23.380;2023-02-28T02:46:52;95203.69;;;6.45;100.00
8543;BME280;4309;42.658;23.380;2023-02-28T02:47:29;95206.66;;;6.42;100.00
8543;BME280;4309;42.658;23.380;2023-02-28T02:48:06;95209.00;;;6.37;100.00
8543;BME280;4309;42.658;23.380;2023-02-28T02:48:40;95205.41;;;6.38;100.00
8543;BME280;4309;42.658;23.380;2023-02-28T02:49:17;95214.00;;;6.39;100.00
8543;BME280;4309;42.658;23.380;2023-02-28T02:49:55;95211.75;;;6.36;100.00
8543;BME280;4309;42.658;23.380;2023-02-28T02:50:33;95204.78;;;6.36;100.00
8543;BME280;4309;42.658;23.380;2023-02-28T02:51:13;95211.66;;;6.44;100.00
8543;BME280;4309;42.658;23.380;2023-02-28T02:51:46;95210.75;;;6.51;100.00
8543;BME280;4309;42.658;23.380;2023-02-28T02:52:22;95203.78;;;6.52;100.00
8543;BME280;4309;42.658;23.380;2023-02-28T02:53:00;95206.00;;;6.55;100.00
8543;BME280;4309;42.658;23.380;2023-02-28T02:53:38;95207.25;;;6.59;100.00
8543;BME280;4309;42.658;23.380;2023-02-28T02:54:15;95202.34;;;6.49;100.00
8543;BME280;4309;42.658;23.380;2023-02-28T02:54:52;95206.56;;;6.50;100.00
8543;BME280;4309;42.658;23.380;2023-02-28T02:55:25;95203.59;;;6.53;100.00
8543;BME280;4309;42.658;23.380;2023-02-28T02:55:58;95204.81;;;6.57;100.00
8543;BME280;4309;42.658;23.380;2023-02-28T02:56:33;95208.91;;;6.66;100.00
8543;BME280;4309;42.658;23.380;2023-02-28T02:57:10;95198.91;;;6.63;100.00
8543;BME280;4309;42.658;23.380;2023-02-28T02:57:46;95206.47;;;6.58;100.00
8543;BME280;4309;42.658;23.380;2023-02-28T02:58:24;95202.34;;;6.49;100.00
8543;BME280;4309;42.658;23.380;2023-02-28T02:59:46;95217.91;;;6.49;100.00
8543;BME280;4309;42.658;23.380;2023-02-28T03:00:23;95216.41;;;6.55;100.00
8543;BME280;4309;42.658;23.380;2023-02-28T03:00:59;95215.59;;;6.54;100.00
8543;BME280;4309;42.658;23.380;2023-02-28T03:01:34;95222.28;;;6.63;100.00
8543;BME280;4309;42.658;23.380;2023-02-28T03:02:11;95218.91;;;6.63;100.00
8543;BME280;4309;42.658;23.380;2023-02-28T03:02:45;95228.28;;;6.64;100.00
8543;BME280;4309;42.658;23.380;2023-02-28T03:03:20;95224.66;;;6.58;100.00
8543;BME280;4309;42.658;23.380;2023-02-28T03:04:04;95228.41;;;6.56;100.00
8543;BME280;4309;42.658;23.380;2023-02-28T03:04:42;95225.16;;;6.54;100.00
8543;BME280;4309;42.658;23.380;2023-02-28T03:05:18;95237.56;;;6.52;100.00
8543;BME280;4309;42.658;23.380;2023-02-28T03:05:52;95241.56;;;6.54;100.00
8543;BME280;4309;42.658;23.380;2023-02-28T03:06:24;95231.16;;;6.54;100.00
8543;BME280;4309;42.658;23.380;2023-02-28T03:06:56;95230.91;;;6.49;100.00
8543;BME280;4309;42.658;23.380;2023-02-28T03:07:28;95236.28;;;6.48;100.00
8543;BME280;4309;42.658;23.380;2023-02-28T03:08:03;95240.41;;;6.42;100.00
8543;BME280;4309;42.658;23.380;2023-02-28T03:08:38;95232.72;;;6.49;100.00
8543;BME280;4309;42.658;23.380;2023-02-28T03:09:10;95237.91;;;6.49;100.00
8543;BME280;4309;42.658;23.380;2023-02-28T03:09:51;95236.56;;;6.53;100.00
8543;BME280;4309;42.658;23.380;2023-02-28T03:10:35;95235.44;;;6.62;100.00
8543;BME280;4309;42.658;23.380;2023-02-28T03:11:12;95242.84;;;6.58;100.00
8543;BME280;4309;42.658;23.380;2023-02-28T03:11:46;95242.00;;;6.58;100.00
8543;BME280;4309;42.658;23.380;2023-02-28T03:12:20;95247.13;;;6.51;100.00
8543;BME280;4309;42.658;23.380;2023-02-28T03:13:11;95239.78;;;6.55;100.00
8543;BME280;4309;42.658;23.380;2023-02-28T03:14:09;95240.50;;;6.49;100.00
8543;BME280;4309;42.658;23.380;2023-02-28T03:15:06;95237.56;;;6.52;100.00
8543;BME280;4309;42.658;23.380;2023-02-28T03:15:48;95250.53;;;6.52;100.00
8543;BME280;4309;42.658;23.380;2023-02-28T03:16:33;95242.00;;;6.58;100.00
8543;BME280;4309;42.658;23.380;2023-02-28T03:18:25;95247.00;;;6.74;100.00
8543;BME280;4309;42.658;23.380;2023-02-28T03:20:17;95247.19;;;6.72;100.00
8543;BME280;4309;42.658;23.380;2023-02-28T03:21:02;95247.38;;;6.71;100.00
8543;BME280;4309;42.658;23.380;2023-02-28T03:21:45;95252.03;;;6.75;100.00